Terminal Aerodrome Forecast
Issued by NWS Cleveland, OH

Home | Current Version | Previous Version | Graphics & Text | Print | Product List | Glossary Off
Versions: 1 2 3 4 5 6 7 8 9 10 11 12 13 14 15

382
FTUS41 KCLE 171137
TAFYNG
TAF
KYNG 171137Z 1712/1812 18010KT 2SM -SHRA BR OVC002
      TEMPO 1712/1716 3SM BR OVC012
     FM172100 24010G18KT 5SM BR OVC010
     FM180000 25008KT 5SM BR VCSH OVC005=

USA.gov is the U.S. government's official web portal to all federal, state and local government web resources and services.